createdAt,value
2023-02-06T00:01:34.595Z,84.12
2023-02-06T00:04:18.960Z,84.44
2023-02-06T00:07:02.947Z,85.39
2023-02-06T00:09:48.169Z,85.11
2023-02-06T00:12:32.278Z,84.41
2023-02-06T00:15:16.110Z,83.73
2023-02-06T00:17:59.934Z,83.49
2023-02-06T00:20:43.772Z,84.03
2023-02-06T00:23:27.593Z,84.79
2023-02-06T00:26:12.878Z,84.17
2023-02-06T00:28:56.920Z,84.42
2023-02-06T00:31:41.686Z,84.84
2023-02-06T00:34:25.757Z,85.23
2023-02-06T00:37:09.634Z,85.20
2023-02-06T00:39:53.905Z,85.55
2023-02-06T00:42:39.376Z,87.03
2023-02-06T00:45:23.399Z,86.19
2023-02-06T00:48:09.200Z,87.45
2023-02-06T00:50:54.914Z,87.98
2023-02-06T00:53:38.913Z,87.39
2023-02-06T00:56:22.868Z,87.17
2023-02-06T00:59:08.118Z,86.79
2023-02-06T01:01:51.933Z,87.06
2023-02-06T01:04:35.837Z,86.56
2023-02-06T01:07:19.726Z,86.67
2023-02-06T01:10:03.559Z,86.45
2023-02-06T01:12:47.588Z,86.66
2023-02-06T01:15:33.147Z,85.34
2023-02-06T01:18:17.189Z,85.24
2023-02-06T01:21:01.035Z,84.58
2023-02-06T01:23:46.843Z,84.25
2023-02-06T01:26:30.697Z,84.15
2023-02-06T01:29:14.444Z,85.12
2023-02-06T01:31:59.865Z,84.96
2023-02-06T01:34:43.770Z,84.06
2023-02-06T01:37:27.688Z,84.74
2023-02-06T01:40:16.235Z,84.68
2023-02-06T01:43:01.521Z,84.07
2023-02-06T01:45:47.152Z,84.31
2023-02-06T01:48:36.497Z,84.22
2023-02-06T01:51:24.728Z,83.84
2023-02-06T01:54:10.163Z,84.98
2023-02-06T01:56:59.772Z,84.53
2023-02-06T01:59:50.550Z,84.20
2023-02-06T02:02:35.924Z,84.33
2023-02-06T02:05:21.656Z,84.62
2023-02-06T02:08:11.567Z,84.47
2023-02-06T02:10:55.559Z,84.18
2023-02-06T02:13:40.406Z,84.54
2023-02-06T02:16:30.837Z,84.59
2023-02-06T02:19:33.551Z,85.54
2023-02-06T02:22:55.584Z,86.57
2023-02-06T02:26:12.658Z,86.57
2023-02-06T02:29:15.670Z,85.13
2023-02-06T02:32:23.747Z,86.13
2023-02-06T02:35:16.180Z,86.09
2023-02-06T02:38:15.800Z,86.61
2023-02-06T02:41:09.968Z,86.11
2023-02-06T02:44:00.664Z,85.80
2023-02-06T02:46:49.244Z,85.76
2023-02-06T02:49:35.168Z,85.73
2023-02-06T02:52:21.038Z,86.00
2023-02-06T02:55:16.243Z,86.13
2023-02-06T02:58:06.871Z,85.63
2023-02-06T03:00:55.581Z,85.01
2023-02-06T03:03:44.641Z,85.17
2023-02-06T03:06:47.943Z,85.39
2023-02-06T03:09:47.098Z,85.40
2023-02-06T03:12:41.185Z,85.52
2023-02-06T03:15:31.013Z,85.79
2023-02-06T03:18:21.159Z,85.52
2023-02-06T03:21:08.174Z,85.66
2023-02-06T03:23:56.078Z,84.93
2023-02-06T03:26:43.139Z,84.60
2023-02-06T03:29:29.485Z,84.64
2023-02-06T03:32:18.697Z,84.64
2023-02-06T03:35:06.563Z,83.95
2023-02-06T03:37:51.416Z,83.90
2023-02-06T03:40:36.404Z,83.31
2023-02-06T03:43:26.252Z,82.95
2023-02-06T03:46:13.496Z,83.19
2023-02-06T03:49:01.229Z,83.23
2023-02-06T03:51:50.476Z,83.57
2023-02-06T03:54:36.881Z,82.98
2023-02-06T03:57:23.076Z,82.81
2023-02-06T04:00:09.754Z,82.15
2023-02-06T04:02:58.067Z,82.48
2023-02-06T04:05:42.107Z,82.76
2023-02-06T04:08:26.004Z,82.88
2023-02-06T04:11:09.685Z,82.70
2023-02-06T04:13:53.419Z,83.00
2023-02-06T04:16:38.774Z,82.84
2023-02-06T04:19:22.730Z,82.65
2023-02-06T04:22:07.200Z,83.37
2023-02-06T04:24:51.057Z,82.16
2023-02-06T04:27:34.939Z,81.89
2023-02-06T04:30:19.044Z,81.95
2023-02-06T04:33:04.350Z,82.57
2023-02-06T04:35:49.002Z,81.65
2023-02-06T04:38:32.832Z,81.39
2023-02-06T04:41:16.702Z,81.13
2023-02-06T04:44:00.504Z,82.60
2023-02-06T04:46:44.444Z,81.87
2023-02-06T04:49:29.846Z,82.51
2023-02-06T04:52:13.722Z,83.23
2023-02-06T04:54:57.593Z,82.50
2023-02-06T04:57:41.422Z,82.99
2023-02-06T05:00:25.469Z,83.42
2023-02-06T05:03:09.424Z,83.10
2023-02-06T05:05:54.703Z,83.64
2023-02-06T05:08:38.570Z,83.61
2023-02-06T05:11:22.427Z,83.93
2023-02-06T05:14:06.151Z,83.34
2023-02-06T05:16:50.148Z,82.30
2023-02-06T05:19:34.019Z,82.52
2023-02-06T05:22:19.163Z,82.92
2023-02-06T05:25:02.979Z,83.10
2023-02-06T05:27:47.493Z,82.93
2023-02-06T05:30:31.392Z,83.19
2023-02-06T05:33:15.358Z,82.60
2023-02-06T05:36:03.158Z,82.79
2023-02-06T05:38:48.519Z,82.92
2023-02-06T05:41:32.523Z,82.69
2023-02-06T05:44:16.367Z,82.71
2023-02-06T05:47:00.551Z,81.98
2023-02-06T05:49:45.010Z,81.70
2023-02-06T05:52:28.755Z,81.16
2023-02-06T05:55:13.980Z,82.12
2023-02-06T05:57:57.810Z,81.11
2023-02-06T06:00:41.784Z,81.55
2023-02-06T06:03:25.705Z,81.29
2023-02-06T06:06:09.768Z,81.82
2023-02-06T06:08:53.575Z,81.97
2023-02-06T06:11:38.819Z,81.92
2023-02-06T06:14:22.938Z,81.96
2023-02-06T06:17:06.736Z,82.54
2023-02-06T06:19:50.580Z,82.89
2023-02-06T06:22:34.574Z,82.58
2023-02-06T06:25:18.672Z,81.56
2023-02-06T06:28:03.837Z,81.78
2023-02-06T06:30:47.793Z,81.63
2023-02-06T06:33:31.576Z,81.65
2023-02-06T06:36:15.830Z,82.29
2023-02-06T06:38:59.645Z,82.79
2023-02-06T06:41:43.655Z,83.24
2023-02-06T06:45:10.032Z,83.90
2023-02-06T06:47:55.259Z,83.63
2023-02-06T06:50:39.092Z,83.25
2023-02-06T06:53:23.270Z,82.77
2023-02-06T06:56:08.979Z,83.79
2023-02-06T06:58:52.808Z,83.25
2023-02-06T07:01:36.706Z,83.83
2023-02-06T07:04:23.155Z,83.04
2023-02-06T07:07:07.499Z,82.44
2023-02-06T07:09:51.398Z,83.00
2023-02-06T07:12:35.366Z,82.67
2023-02-06T07:15:19.312Z,82.08
2023-02-06T07:18:03.057Z,83.32
2023-02-06T07:20:48.421Z,81.94
2023-02-06T07:23:32.311Z,81.90
2023-02-06T07:26:16.091Z,80.65
2023-02-06T07:28:59.816Z,80.23
2023-02-06T07:31:43.739Z,81.31
2023-02-06T07:34:27.806Z,80.24
2023-02-06T07:37:12.982Z,79.86
2023-02-06T07:39:56.849Z,79.46
2023-02-06T07:42:41.028Z,77.36
2023-02-06T07:45:32.811Z,75.72
2023-02-06T07:48:17.123Z,75.93
2023-02-06T07:51:06.141Z,77.00
2023-02-06T07:53:51.358Z,75.96
2023-02-06T07:56:35.494Z,74.78
2023-02-06T07:59:19.368Z,74.31
2023-02-06T08:02:03.262Z,73.73
2023-02-06T08:04:47.132Z,72.92
2023-02-06T08:07:30.956Z,73.68
2023-02-06T08:10:16.706Z,72.32
2023-02-06T08:13:00.575Z,71.80
2023-02-06T08:15:45.095Z,70.61
2023-02-06T08:18:28.896Z,71.04
2023-02-06T08:21:14.244Z,72.38
2023-02-06T08:23:59.430Z,71.09
2023-02-06T08:26:44.952Z,71.45
2023-02-06T08:29:28.896Z,70.55
2023-02-06T08:32:12.815Z,68.84
2023-02-06T08:34:56.633Z,68.41
2023-02-06T08:37:40.854Z,68.29
2023-02-06T08:40:24.757Z,67.74
2023-02-06T08:43:09.936Z,67.47
2023-02-06T08:45:56.247Z,68.21
2023-02-06T08:48:40.212Z,67.67
2023-02-06T08:51:27.864Z,66.89
2023-02-06T08:54:14.588Z,65.48
2023-02-06T08:57:01.092Z,65.06
2023-02-06T08:59:46.407Z,65.50
2023-02-06T09:02:30.301Z,65.86
2023-02-06T09:05:14.577Z,66.10
2023-02-06T09:07:58.430Z,64.75
2023-02-06T09:15:54.954Z,67.12
2023-02-06T09:18:39.170Z,66.18
2023-02-06T09:21:26.306Z,64.58
2023-02-06T09:24:10.701Z,64.85
2023-02-06T09:26:59.824Z,65.65
2023-02-06T09:29:44.238Z,65.13
2023-02-06T09:32:29.560Z,64.25
2023-02-06T09:35:13.578Z,63.72
2023-02-06T09:37:57.606Z,62.36
2023-02-06T09:40:41.845Z,61.26
2023-02-06T09:43:26.164Z,62.11
2023-02-06T09:46:16.112Z,62.01
2023-02-06T09:49:04.588Z,60.93
2023-02-06T09:52:24.534Z,61.18
2023-02-06T09:55:17.216Z,62.01
2023-02-06T09:58:12.741Z,62.28
2023-02-06T10:01:02.552Z,64.33
2023-02-06T10:04:12.717Z,63.04
2023-02-06T10:07:08.205Z,63.25
2023-02-06T10:09:57.500Z,65.43
2023-02-06T10:12:45.554Z,65.37
2023-02-06T10:15:35.317Z,65.60
2023-02-06T10:18:25.401Z,66.12
2023-02-06T10:21:16.485Z,65.14
2023-02-06T10:24:09.727Z,65.86
2023-02-06T10:26:54.628Z,64.57
2023-02-06T10:29:38.850Z,64.40
2023-02-06T10:32:38.841Z,65.55
2023-02-06T10:35:49.857Z,65.49
2023-02-06T10:39:14.112Z,65.17
2023-02-06T10:42:06.604Z,67.69
2023-02-06T10:45:09.522Z,65.98
2023-02-06T10:48:10.038Z,66.70
2023-02-06T10:50:57.749Z,65.91
2023-02-06T10:53:49.979Z,66.30
2023-02-06T10:56:41.003Z,65.17
2023-02-06T10:59:30.134Z,66.92
2023-02-06T11:02:21.599Z,66.19
2023-02-06T11:05:09.165Z,66.40
2023-02-06T11:07:55.097Z,67.35
2023-02-06T11:10:39.342Z,66.95
2023-02-06T11:13:28.584Z,67.42
2023-02-06T11:16:16.567Z,67.18
2023-02-06T11:19:10.973Z,67.38
2023-02-06T11:21:57.208Z,68.87
2023-02-06T11:25:00.120Z,69.80
2023-02-06T11:27:44.461Z,68.49
2023-02-06T11:30:36.017Z,69.28
2023-02-06T11:33:23.292Z,70.02
2023-02-06T11:36:09.170Z,68.97
2023-02-06T11:38:58.842Z,68.76
2023-02-06T11:41:56.854Z,68.18
2023-02-06T11:44:43.626Z,67.55
2023-02-06T11:47:32.538Z,67.77
2023-02-06T11:50:28.705Z,68.75
2023-02-06T11:53:16.864Z,67.26
2023-02-06T11:56:04.336Z,67.16
2023-02-06T11:59:01.883Z,66.29
2023-02-06T12:01:47.912Z,69.06
2023-02-06T12:04:37.672Z,68.56
2023-02-06T12:07:30.136Z,70.06
2023-02-06T12:10:16.125Z,71.42
2023-02-06T12:13:08.187Z,72.20
2023-02-06T12:15:55.330Z,73.14
2023-02-06T12:18:41.366Z,74.14
2023-02-06T12:21:31.415Z,73.35
2023-02-06T12:24:26.623Z,72.88
2023-02-06T12:27:16.430Z,71.16
2023-02-06T12:30:07.482Z,71.00
2023-02-06T12:33:00.026Z,70.41
2023-02-06T12:35:48.239Z,70.59
2023-02-06T12:38:43.140Z,69.84
2023-02-06T12:41:42.539Z,70.84
2023-02-06T12:44:33.701Z,69.99
2023-02-06T12:47:25.104Z,69.17
2023-02-06T12:50:17.793Z,69.87
2023-02-06T12:53:06.166Z,69.77
2023-02-06T12:55:59.609Z,70.28
2023-02-06T12:58:57.545Z,69.31
2023-02-06T13:01:54.871Z,67.74
2023-02-06T13:04:39.287Z,68.08
2023-02-06T13:07:28.329Z,67.85
2023-02-06T13:10:20.458Z,67.36
2023-02-06T13:13:06.422Z,66.71
2023-02-06T13:15:55.309Z,68.20
2023-02-06T13:19:03.782Z,67.88
2023-02-06T13:21:52.976Z,68.10
2023-02-06T13:24:38.080Z,68.42
2023-02-06T13:27:25.289Z,68.68
2023-02-06T13:30:50.155Z,68.34
2023-02-06T13:33:42.677Z,69.09
2023-02-06T13:36:42.367Z,70.18
2023-02-06T13:39:32.663Z,68.70
2023-02-06T13:42:44.217Z,69.41
2023-02-06T13:45:41.673Z,69.39
2023-02-06T13:48:55.367Z,69.71
2023-02-06T13:51:54.178Z,69.90
2023-02-06T13:55:00.884Z,69.58
2023-02-06T13:58:14.145Z,68.58
2023-02-06T14:01:01.475Z,68.70
2023-02-06T14:03:47.308Z,69.58
2023-02-06T14:06:44.524Z,68.49
2023-02-06T14:09:48.821Z,69.06
2023-02-06T14:12:57.435Z,69.50
2023-02-06T14:15:52.058Z,70.31
2023-02-06T14:18:46.972Z,70.37
2023-02-06T14:21:38.787Z,70.65
2023-02-06T14:25:04.197Z,69.78
2023-02-06T14:28:01.366Z,70.05
2023-02-06T14:30:52.166Z,70.36
2023-02-06T14:33:56.343Z,69.37
2023-02-06T14:37:05.368Z,70.64
2023-02-06T14:39:51.603Z,70.57
2023-02-06T14:42:40.484Z,71.95
2023-02-06T14:45:41.044Z,72.28
2023-02-06T14:48:32.958Z,74.08
2023-02-06T14:51:24.937Z,73.38
2023-02-06T14:54:30.013Z,74.81
2023-02-06T14:57:21.183Z,74.86
2023-02-06T15:00:18.483Z,73.72
2023-02-06T15:03:08.585Z,75.38
2023-02-06T15:06:02.315Z,75.19
2023-02-06T15:08:51.084Z,76.16
2023-02-06T15:11:35.711Z,74.56
2023-02-06T15:14:23.290Z,73.91
2023-02-06T15:17:07.149Z,73.96
2023-02-06T15:19:51.156Z,74.64
2023-02-06T15:22:36.984Z,74.16
2023-02-06T15:25:34.972Z,73.94
2023-02-06T15:28:21.701Z,74.64
2023-02-06T15:31:06.359Z,74.54
2023-02-06T15:33:52.432Z,74.32
2023-02-06T15:36:37.969Z,72.88
2023-02-06T15:39:21.984Z,74.85
2023-02-06T15:42:07.294Z,74.45
2023-02-06T15:44:51.566Z,75.42
2023-02-06T15:47:35.790Z,75.69
2023-02-06T15:50:21.330Z,75.37
2023-02-06T15:53:18.827Z,75.97
2023-02-06T15:56:05.251Z,74.89
2023-02-06T15:58:58.948Z,74.34
2023-02-06T16:01:44.874Z,73.79
2023-02-06T16:04:32.323Z,73.94
2023-02-06T16:07:19.784Z,71.74
2023-02-06T16:10:13.443Z,71.46
2023-02-06T16:13:00.225Z,71.36
2023-02-06T16:16:03.318Z,69.91
2023-02-06T16:18:47.384Z,68.79
2023-02-06T16:21:35.591Z,68.83
2023-02-06T16:24:22.316Z,69.34
2023-02-06T16:27:17.539Z,70.17
2023-02-06T16:30:01.659Z,70.51
2023-02-06T16:32:49.223Z,70.41
2023-02-06T16:35:33.109Z,71.49
2023-02-06T16:38:17.060Z,72.01
2023-02-06T16:41:01.152Z,71.65
2023-02-06T16:43:45.246Z,71.48
2023-02-06T16:46:29.483Z,72.82
2023-02-06T16:49:17.318Z,73.26
2023-02-06T16:52:01.607Z,74.04
2023-02-06T16:54:46.898Z,73.70
2023-02-06T16:57:35.108Z,73.90
2023-02-06T17:00:21.256Z,73.26
2023-02-06T17:03:06.067Z,74.53
2023-02-06T17:05:53.085Z,73.20
2023-02-06T17:08:40.303Z,73.94
2023-02-06T17:11:24.132Z,74.03
2023-02-06T17:14:08.089Z,73.66
2023-02-06T17:16:52.195Z,74.30
2023-02-06T17:19:36.089Z,75.23
2023-02-06T17:22:21.600Z,75.37
2023-02-06T17:25:06.141Z,75.25
2023-02-06T17:27:50.210Z,76.38
2023-02-06T17:30:36.078Z,76.31
2023-02-06T17:33:20.804Z,76.14
2023-02-06T17:36:07.866Z,76.92
2023-02-06T17:38:53.301Z,77.26
2023-02-06T17:41:37.332Z,76.95
2023-02-06T17:44:21.401Z,77.41
2023-02-06T17:47:05.717Z,76.94
2023-02-06T17:49:49.772Z,77.15
2023-02-06T17:52:33.704Z,76.31
2023-02-06T17:55:19.082Z,75.76
2023-02-06T17:58:02.967Z,75.20
2023-02-06T18:00:49.348Z,75.47
2023-02-06T18:03:33.233Z,75.70
2023-02-06T18:06:17.108Z,76.04
2023-02-06T18:09:01.016Z,76.03
2023-02-06T18:11:46.472Z,77.40
2023-02-06T18:14:30.216Z,77.64
2023-02-06T18:17:14.059Z,77.17
2023-02-06T18:19:58.290Z,77.37
2023-02-06T18:22:42.194Z,76.76
2023-02-06T18:25:25.936Z,77.67
2023-02-06T18:28:13.946Z,77.22
2023-02-06T18:30:58.121Z,77.92
2023-02-06T18:33:41.879Z,78.21
2023-02-06T18:36:26.216Z,77.13
2023-02-06T18:39:11.745Z,77.24
2023-02-06T18:42:13.187Z,77.53
2023-02-06T18:44:58.337Z,77.04
2023-02-06T18:47:42.469Z,77.32
2023-02-06T18:50:26.481Z,77.33
2023-02-06T18:53:10.888Z,76.98
2023-02-06T18:55:58.986Z,76.96
2023-02-06T18:58:43.016Z,77.45
2023-02-06T19:01:28.379Z,77.92
2023-02-06T19:04:12.135Z,76.98
2023-02-06T19:06:56.080Z,77.15
2023-02-06T19:09:40.023Z,78.14
2023-02-06T19:12:23.901Z,78.06
2023-02-06T19:15:08.943Z,77.91
2023-02-06T19:17:54.248Z,78.16
2023-02-06T19:20:38.462Z,77.30
2023-02-06T19:23:22.792Z,78.07
2023-02-06T19:26:07.992Z,78.60
2023-02-06T19:28:52.489Z,77.86
2023-02-06T19:31:39.250Z,77.12
2023-02-06T19:34:24.778Z,77.11
2023-02-06T19:37:11.356Z,77.95
2023-02-06T19:39:55.282Z,77.18
2023-02-06T19:42:40.766Z,77.69
2023-02-06T19:45:24.748Z,77.94
2023-02-06T19:48:12.298Z,78.12
2023-02-06T19:50:57.721Z,77.73
2023-02-06T19:53:45.857Z,77.10
2023-02-06T19:56:34.641Z,77.49
2023-02-06T19:59:21.701Z,77.42
2023-02-06T20:02:05.733Z,77.13
2023-02-06T20:04:49.581Z,76.73
2023-02-06T20:07:34.901Z,76.43
2023-02-06T20:10:18.689Z,75.94
2023-02-06T20:13:02.482Z,76.95
2023-02-06T20:15:46.395Z,76.68
2023-02-06T20:18:30.282Z,76.17
2023-02-06T20:21:21.998Z,75.74
2023-02-06T20:24:10.124Z,75.63
2023-02-06T20:26:56.420Z,74.96
2023-02-06T20:29:42.557Z,75.51
2023-02-06T20:32:26.324Z,75.17
2023-02-06T20:35:10.201Z,75.53
2023-02-06T20:37:54.058Z,75.76
2023-02-06T20:40:43.778Z,76.25
2023-02-06T20:43:27.591Z,76.45
2023-02-06T20:46:11.521Z,76.50
2023-02-06T20:48:57.378Z,76.28
2023-02-06T20:51:41.262Z,76.57
2023-02-06T20:54:26.116Z,76.06
2023-02-06T20:57:11.312Z,75.17
2023-02-06T20:59:55.197Z,75.30
2023-02-06T21:02:38.974Z,75.74
2023-02-06T21:05:22.770Z,76.11
2023-02-06T21:08:06.572Z,76.34
2023-02-06T21:10:51.159Z,77.17
2023-02-06T21:13:36.669Z,77.28
2023-02-06T21:16:20.416Z,77.58
2023-02-06T21:19:07.029Z,78.21
2023-02-06T21:21:51.147Z,78.78
2023-02-06T21:24:34.916Z,78.75
2023-02-06T21:27:18.780Z,79.28
2023-02-06T21:30:05.050Z,79.65
2023-02-06T21:32:48.912Z,80.23
2023-02-06T21:35:33.904Z,78.65
2023-02-06T21:38:18.125Z,78.90
2023-02-06T21:41:05.171Z,79.42
2023-02-06T21:43:49.189Z,79.21
2023-02-06T21:46:34.588Z,78.74
2023-02-06T21:49:18.766Z,78.18
2023-02-06T21:52:02.557Z,78.44
2023-02-06T21:54:46.423Z,78.56
2023-02-06T21:57:30.280Z,78.19
2023-02-06T22:00:15.169Z,78.62
2023-02-06T22:03:00.349Z,78.80
2023-02-06T22:05:44.293Z,78.62
2023-02-06T22:08:28.114Z,79.13
2023-02-06T22:11:14.268Z,78.56
2023-02-06T22:13:59.783Z,78.86
2023-02-06T22:16:46.642Z,78.84
2023-02-06T22:19:32.024Z,79.74
2023-02-06T22:22:16.072Z,79.12
2023-02-06T22:25:00.108Z,78.56
2023-02-06T22:27:44.129Z,79.12
2023-02-06T22:30:27.943Z,78.90
2023-02-06T22:33:11.773Z,79.49
2023-02-06T22:35:56.999Z,80.35
2023-02-06T22:38:41.852Z,80.45
2023-02-06T22:41:25.768Z,79.75
2023-02-06T22:44:09.656Z,80.13
2023-02-06T22:46:54.326Z,79.75
2023-02-06T22:49:38.242Z,79.71
2023-02-06T22:52:40.683Z,79.67
2023-02-06T22:55:24.814Z,78.99
2023-02-06T22:58:08.634Z,79.06
2023-02-06T23:00:52.489Z,79.17
2023-02-06T23:03:36.461Z,78.54
2023-02-06T23:06:20.536Z,77.73
2023-02-06T23:09:07.523Z,77.74
2023-02-06T23:11:51.845Z,77.46
2023-02-06T23:14:35.661Z,78.12
2023-02-06T23:17:19.444Z,78.25
2023-02-06T23:20:03.185Z,77.84
2023-02-06T23:22:47.069Z,77.77
2023-02-06T23:25:32.821Z,77.89
2023-02-06T23:28:16.876Z,77.55
2023-02-06T23:31:00.836Z,77.53
2023-02-06T23:33:44.681Z,78.09
2023-02-06T23:36:29.688Z,77.41
2023-02-06T23:39:13.523Z,77.16
2023-02-06T23:41:58.721Z,77.36
2023-02-06T23:44:42.653Z,77.73
2023-02-06T23:47:26.489Z,77.63
2023-02-06T23:50:11.074Z,76.94
2023-02-06T23:52:55.113Z,77.58
2023-02-06T23:55:40.524Z,77.13
2023-02-06T23:58:26.152Z,76.93
